Time;durP1;ratioP1;P1;durP2;ratioP2;P2;SDS_P1;SDS_P2;PMS_P1;PMS_P2;Temp;Humidity;BMP_temperature;BMP_pressure;BME280_temperature;BME280_humidity;BME280_pressure;Samples;Min_cycle;Max_cycle;Signal;HPM_P1;HPM_P2
2023/08/26 00:01:52;;;;;;;5.63;5.10;;;;;;;;;;5072511;28;20181;-73
2023/08/26 00:04:18;;;;;;;5.83;5.30;;;;;;;;;;5070694;28;20218;-73
2023/08/26 00:06:44;;;;;;;6.10;5.17;;;;;;;;;;5054507;28;20183;-73
2023/08/26 00:09:09;;;;;;;5.63;5.03;;;;;;;;;;5061926;28;20228;-73
2023/08/26 00:11:34;;;;;;;5.77;5.20;;;;;;;;;;5068856;28;20207;-73
2023/08/26 00:13:59;;;;;;;6.17;4.97;;;;;;;;;;5072096;28;20175;-73
2023/08/26 00:16:24;;;;;;;6.20;5.10;;;;;;;;;;5070756;28;20170;-73
2023/08/26 00:18:50;;;;;;;5.03;4.37;;;;;;;;;;5071861;28;20202;-73
2023/08/26 00:21:17;;;;;;;5.97;4.87;;;;;;;;;;5072322;28;20188;-73
2023/08/26 00:23:42;;;;;;;4.50;4.10;;;;;;;;;;5053843;28;20189;-72
2023/08/26 00:26:08;;;;;;;6.40;4.77;;;;;;;;;;5070040;28;20182;-73
2023/08/26 00:28:33;;;;;;;6.03;4.90;;;;;;;;;;5070928;28;20218;-73
2023/08/26 00:30:59;;;;;;;6.93;5.10;;;;;;;;;;5053944;28;20184;-73
2023/08/26 00:33:25;;;;;;;5.57;4.20;;;;;;;;;;5050535;28;20175;-75
2023/08/26 00:35:50;;;;;;;6.00;4.83;;;;;;;;;;5071452;28;20211;-73
2023/08/26 00:38:15;;;;;;;10.03;5.13;;;;;;;;;;5054636;28;20170;-73
2023/08/26 00:40:40;;;;;;;5.77;4.87;;;;;;;;;;5070799;28;20187;-73
2023/08/26 00:43:09;;;;;;;6.73;4.53;;;;;;;;;;5051556;28;20182;-73
2023/08/26 00:45:36;;;;;;;4.70;4.20;;;;;;;;;;5056616;28;20188;-73
2023/08/26 00:48:01;;;;;;;4.50;3.90;;;;;;;;;;5054284;28;20209;-73
2023/08/26 00:50:28;;;;;;;4.10;3.70;;;;;;;;;;5056920;28;20178;-73
2023/08/26 00:52:53;;;;;;;5.47;3.50;;;;;;;;;;5071375;28;20240;-73
2023/08/26 00:55:20;;;;;;;4.30;3.70;;;;;;;;;;5071634;28;20176;-73
2023/08/26 00:57:45;;;;;;;5.70;3.67;;;;;;;;;;5066876;28;20166;-73
2023/08/26 01:00:10;;;;;;;3.67;3.37;;;;;;;;;;5053409;28;20175;-73
2023/08/26 01:02:36;;;;;;;4.40;3.90;;;;;;;;;;5071003;28;20183;-73
2023/08/26 01:05:02;;;;;;;6.07;3.73;;;;;;;;;;5070966;28;20178;-73
2023/08/26 01:07:28;;;;;;;6.87;4.00;;;;;;;;;;5052152;28;20288;-73
2023/08/26 01:09:53;;;;;;;5.20;4.37;;;;;;;;;;5071943;28;20330;-73
2023/08/26 01:12:21;;;;;;;4.57;4.17;;;;;;;;;;5052548;28;20177;-73
2023/08/26 01:15:07;;;;;;;5.90;5.00;;;;;;;;;;5070433;28;20185;-73
2023/08/26 01:17:33;;;;;;;6.83;4.93;;;;;;;;;;5070783;28;20202;-73
2023/08/26 01:19:58;;;;;;;6.13;5.23;;;;;;;;;;5067789;28;20211;-73
2023/08/26 01:22:26;;;;;;;6.10;5.00;;;;;;;;;;5068932;28;20193;-72
2023/08/26 01:24:51;;;;;;;8.97;5.37;;;;;;;;;;5068513;28;20181;-73
2023/08/26 01:27:17;;;;;;;8.00;5.33;;;;;;;;;;5069441;28;20178;-73
2023/08/26 01:29:44;;;;;;;7.07;5.23;;;;;;;;;;5052475;28;20235;-73
2023/08/26 01:32:25;;;;;;;6.13;4.73;;;;;;;;;;5065617;28;20188;-73
2023/08/26 01:34:52;;;;;;;7.07;5.20;;;;;;;;;;5067719;28;20246;-73
2023/08/26 01:37:18;;;;;;;7.70;5.50;;;;;;;;;;5065445;28;20183;-73
2023/08/26 01:39:44;;;;;;;7.17;5.93;;;;;;;;;;5069970;28;20193;-73
2023/08/26 01:42:09;;;;;;;9.60;6.17;;;;;;;;;;5053164;28;20186;-73
2023/08/26 01:44:35;;;;;;;11.97;6.97;;;;;;;;;;5053669;28;20195;-73
2023/08/26 01:47:00;;;;;;;7.80;6.00;;;;;;;;;;5059448;28;20271;-73
2023/08/26 01:49:25;;;;;;;8.43;6.27;;;;;;;;;;5052351;28;20220;-73
2023/08/26 01:51:50;;;;;;;8.83;5.83;;;;;;;;;;5069302;28;20166;-73
2023/08/26 01:54:15;;;;;;;9.63;6.43;;;;;;;;;;5054946;28;20177;-72
2023/08/26 01:56:41;;;;;;;8.50;6.43;;;;;;;;;;5055522;28;20174;-73
2023/08/26 01:59:06;;;;;;;6.93;6.20;;;;;;;;;;5068725;28;20231;-73
2023/08/26 02:01:33;;;;;;;7.37;5.87;;;;;;;;;;5070234;28;20187;-73
2023/08/26 02:03:58;;;;;;;8.20;6.37;;;;;;;;;;5067744;28;20197;-73
2023/08/26 02:06:23;;;;;;;6.13;5.00;;;;;;;;;;5070200;28;20265;-73
2023/08/26 02:08:49;;;;;;;8.97;6.17;;;;;;;;;;5068436;28;20309;-73
2023/08/26 02:11:14;;;;;;;9.07;6.73;;;;;;;;;;5053221;28;20204;-73
2023/08/26 02:13:40;;;;;;;10.43;6.23;;;;;;;;;;5051009;28;20177;-73
2023/08/26 02:16:05;;;;;;;9.63;6.60;;;;;;;;;;5073153;28;20219;-73
2023/08/26 02:18:30;;;;;;;10.80;6.33;;;;;;;;;;5070244;28;20174;-73
2023/08/26 02:20:55;;;;;;;7.93;5.40;;;;;;;;;;5050657;28;20242;-73
2023/08/26 02:23:21;;;;;;;7.13;6.20;;;;;;;;;;5068620;28;20188;-73
2023/08/26 02:25:46;;;;;;;6.13;5.53;;;;;;;;;;5069839;28;20180;-73
2023/08/26 02:28:11;;;;;;;7.93;5.97;;;;;;;;;;5070064;28;20204;-73
2023/08/26 02:30:37;;;;;;;11.13;6.27;;;;;;;;;;5046417;28;20187;-73
2023/08/26 02:33:02;;;;;;;7.80;5.37;;;;;;;;;;5051587;28;20173;-73
2023/08/26 02:35:28;;;;;;;7.17;5.10;;;;;;;;;;5056828;28;20295;-73
2023/08/26 02:37:54;;;;;;;8.83;5.53;;;;;;;;;;5073298;28;20187;-73
2023/08/26 02:40:19;;;;;;;7.60;5.27;;;;;;;;;;5057973;28;20184;-73
2023/08/26 02:42:45;;;;;;;7.33;5.43;;;;;;;;;;5073857;28;20177;-73
2023/08/26 02:45:10;;;;;;;8.77;5.30;;;;;;;;;;5072258;28;20175;-73
2023/08/26 02:47:35;;;;;;;5.90;5.33;;;;;;;;;;5073163;28;20180;-73
2023/08/26 02:50:00;;;;;;;8.50;5.03;;;;;;;;;;5073042;28;20245;-73
2023/08/26 02:52:26;;;;;;;5.83;4.93;;;;;;;;;;5053676;28;20194;-73
2023/08/26 02:54:51;;;;;;;7.60;5.23;;;;;;;;;;5072517;28;20181;-73
2023/08/26 02:57:16;;;;;;;7.70;5.40;;;;;;;;;;5072718;28;20241;-73
2023/08/26 02:59:42;;;;;;;6.90;5.10;;;;;;;;;;5071287;28;20180;-73
2023/08/26 03:02:07;;;;;;;5.67;5.17;;;;;;;;;;5072420;28;20191;-73
2023/08/26 03:04:35;;;;;;;9.07;5.83;;;;;;;;;;5055910;28;20182;-73
2023/08/26 03:07:01;;;;;;;8.73;5.47;;;;;;;;;;5075356;28;20197;-73
2023/08/26 03:09:28;;;;;;;6.53;5.17;;;;;;;;;;5054660;28;20318;-73
2023/08/26 03:11:53;;;;;;;8.87;5.87;;;;;;;;;;5055138;28;20186;-73
2023/08/26 03:14:18;;;;;;;10.00;5.40;;;;;;;;;;5071713;28;20172;-73
2023/08/26 03:16:43;;;;;;;8.70;5.07;;;;;;;;;;5070977;28;20200;-73
2023/08/26 03:19:09;;;;;;;6.87;5.53;;;;;;;;;;5055297;28;20210;-73
2023/08/26 03:21:34;;;;;;;8.50;5.60;;;;;;;;;;5071725;28;20225;-73
2023/08/26 03:23:59;;;;;;;6.23;5.67;;;;;;;;;;5055647;28;20177;-73
2023/08/26 03:26:24;;;;;;;6.30;5.30;;;;;;;;;;5071959;28;20248;-73
2023/08/26 03:28:49;;;;;;;5.83;4.97;;;;;;;;;;5058080;28;20234;-73
2023/08/26 03:31:15;;;;;;;7.10;5.60;;;;;;;;;;5072490;28;20183;-73
2023/08/26 03:33:40;;;;;;;10.13;5.93;;;;;;;;;;5055046;28;20185;-73
2023/08/26 03:36:06;;;;;;;9.13;5.90;;;;;;;;;;5071137;28;20175;-73
2023/08/26 03:38:32;;;;;;;8.20;5.47;;;;;;;;;;5072431;28;20183;-73
2023/08/26 03:40:57;;;;;;;7.83;5.60;;;;;;;;;;5072955;28;20177;-73
2023/08/26 03:43:22;;;;;;;8.23;6.40;;;;;;;;;;5073386;28;20194;-73
2023/08/26 03:45:48;;;;;;;7.23;6.00;;;;;;;;;;5069278;28;20182;-73
2023/08/26 03:48:13;;;;;;;7.97;5.80;;;;;;;;;;5071900;28;20203;-73
2023/08/26 03:50:38;;;;;;;8.13;6.43;;;;;;;;;;5056817;28;20162;-73
2023/08/26 03:53:04;;;;;;;10.83;6.23;;;;;;;;;;5053402;28;20221;-73
2023/08/26 03:55:32;;;;;;;9.33;5.50;;;;;;;;;;5072775;28;20221;-73
2023/08/26 03:57:57;;;;;;;8.53;6.80;;;;;;;;;;5071028;28;20181;-73
2023/08/26 04:00:23;;;;;;;7.67;6.13;;;;;;;;;;5070762;28;20230;-73
2023/08/26 04:02:48;;;;;;;7.30;5.97;;;;;;;;;;5069556;28;20289;-73
2023/08/26 04:05:13;;;;;;;5.57;5.00;;;;;;;;;;5070668;28;20179;-73
2023/08/26 04:07:39;;;;;;;8.77;5.93;;;;;;;;;;5070628;28;20204;-73
2023/08/26 04:10:04;;;;;;;6.87;5.93;;;;;;;;;;5054671;28;20236;-73
2023/08/26 04:12:30;;;;;;;11.30;6.60;;;;;;;;;;5054988;28;20183;-73
2023/08/26 04:14:55;;;;;;;7.67;5.60;;;;;;;;;;5070966;28;20176;-73
2023/08/26 04:17:20;;;;;;;8.67;6.57;;;;;;;;;;5069452;28;20177;-73
2023/08/26 04:19:45;;;;;;;7.03;6.33;;;;;;;;;;5070545;28;20188;-73
2023/08/26 04:22:10;;;;;;;8.10;6.97;;;;;;;;;;5069780;28;20196;-73
2023/08/26 04:24:36;;;;;;;7.70;6.23;;;;;;;;;;5069750;28;20189;-73
2023/08/26 04:27:01;;;;;;;9.87;6.40;;;;;;;;;;5068669;28;20178;-73
2023/08/26 04:29:26;;;;;;;8.13;6.63;;;;;;;;;;5053299;28;20206;-73
2023/08/26 04:31:51;;;;;;;8.50;6.50;;;;;;;;;;5070157;28;20237;-73
2023/08/26 04:34:17;;;;;;;9.23;6.50;;;;;;;;;;5054686;28;20181;-73
2023/08/26 04:36:43;;;;;;;8.17;6.83;;;;;;;;;;5067468;28;20185;-73
2023/08/26 04:39:11;;;;;;;8.67;6.90;;;;;;;;;;5070657;28;20265;-73
2023/08/26 04:41:43;;;;;;;8.57;6.57;;;;;;;;;;5057895;28;20193;-73
2023/08/26 04:44:08;;;;;;;8.70;6.90;;;;;;;;;;5053225;28;20185;-73
2023/08/26 04:46:33;;;;;;;9.73;6.73;;;;;;;;;;5064759;28;20186;-73
2023/08/26 04:48:59;;;;;;;10.80;7.23;;;;;;;;;;5070648;28;20278;-73
2023/08/26 04:51:24;;;;;;;9.20;6.83;;;;;;;;;;5069389;28;20201;-73
2023/08/26 04:53:49;;;;;;;8.83;6.27;;;;;;;;;;5071008;28;20172;-73
2023/08/26 04:56:15;;;;;;;9.83;6.77;;;;;;;;;;5065944;28;20323;-73
2023/08/26 04:58:40;;;;;;;11.00;7.13;;;;;;;;;;5071300;28;20225;-72
2023/08/26 05:01:05;;;;;;;8.20;7.17;;;;;;;;;;5052525;28;20256;-73
2023/08/26 05:03:30;;;;;;;9.30;6.33;;;;;;;;;;5067169;28;20197;-73
2023/08/26 05:05:56;;;;;;;8.90;6.10;;;;;;;;;;5068596;28;20250;-73
2023/08/26 05:08:21;;;;;;;9.10;7.00;;;;;;;;;;5074460;28;20198;-73
2023/08/26 05:10:46;;;;;;;9.13;6.70;;;;;;;;;;5055363;28;20246;-73
2023/08/26 05:13:11;;;;;;;8.83;7.30;;;;;;;;;;5070059;28;20169;-73
2023/08/26 05:15:36;;;;;;;8.87;6.63;;;;;;;;;;5067875;28;20169;-73
2023/08/26 05:18:03;;;;;;;8.33;6.10;;;;;;;;;;5067024;28;20283;-73
2023/08/26 05:20:29;;;;;;;6.87;5.50;;;;;;;;;;5052057;28;20189;-73
2023/08/26 05:22:55;;;;;;;8.57;6.07;;;;;;;;;;5053360;28;20184;-73
2023/08/26 05:25:20;;;;;;;9.07;6.07;;;;;;;;;;5068817;28;20181;-73
2023/08/26 05:27:46;;;;;;;6.20;5.20;;;;;;;;;;5070569;28;20171;-73
2023/08/26 05:30:12;;;;;;;8.77;5.83;;;;;;;;;;5050154;28;20314;-73
2023/08/26 05:32:37;;;;;;;10.37;6.23;;;;;;;;;;5067580;28;20320;-73
2023/08/26 05:35:03;;;;;;;6.63;5.60;;;;;;;;;;5067190;28;20169;-73
2023/08/26 05:37:28;;;;;;;7.03;6.10;;;;;;;;;;5048796;28;20185;-73
2023/08/26 05:39:53;;;;;;;7.73;5.90;;;;;;;;;;5068424;28;20187;-73
2023/08/26 05:42:18;;;;;;;9.17;6.20;;;;;;;;;;5066085;28;20183;-73
2023/08/26 05:44:43;;;;;;;7.63;6.00;;;;;;;;;;5053231;28;20184;-73
2023/08/26 05:47:09;;;;;;;7.57;6.00;;;;;;;;;;5066522;28;20184;-73
2023/08/26 05:49:34;;;;;;;6.87;6.23;;;;;;;;;;5065897;28;20261;-73
2023/08/26 05:51:59;;;;;;;6.90;6.20;;;;;;;;;;5065349;28;20267;-73
2023/08/26 05:54:24;;;;;;;8.27;5.97;;;;;;;;;;5060995;28;20190;-73
2023/08/26 05:56:50;;;;;;;7.73;6.10;;;;;;;;;;5064820;28;20196;-73
2023/08/26 05:59:16;;;;;;;10.40;6.30;;;;;;;;;;5063220;28;20268;-73
2023/08/26 06:01:42;;;;;;;6.23;5.63;;;;;;;;;;5063941;28;20244;-73
2023/08/26 06:04:08;;;;;;;7.77;5.87;;;;;;;;;;5061635;28;20181;-73
2023/08/26 06:06:33;;;;;;;7.97;6.43;;;;;;;;;;5060190;28;20181;-73
2023/08/26 06:08:58;;;;;;;7.43;6.50;;;;;;;;;;5067801;28;20234;-73
2023/08/26 06:11:24;;;;;;;7.23;6.17;;;;;;;;;;5068400;28;20181;-73
2023/08/26 06:13:49;;;;;;;12.73;5.73;;;;;;;;;;5054683;28;20176;-73
2023/08/26 06:16:19;;;;;;;6.77;5.27;;;;;;;;;;5069138;28;20247;-73
2023/08/26 06:18:44;;;;;;;6.40;5.80;;;;;;;;;;5053616;28;20183;-73
2023/08/26 06:21:09;;;;;;;7.57;5.77;;;;;;;;;;5054706;28;20207;-73
2023/08/26 06:23:34;;;;;;;6.63;6.00;;;;;;;;;;5068304;28;20196;-73
2023/08/26 06:26:00;;;;;;;6.50;5.90;;;;;;;;;;5073223;28;20185;-72
2023/08/26 06:28:25;;;;;;;10.17;6.63;;;;;;;;;;5053281;28;20211;-73
2023/08/26 06:30:50;;;;;;;8.97;6.13;;;;;;;;;;5058881;28;20182;-73
2023/08/26 06:33:16;;;;;;;6.53;5.67;;;;;;;;;;5068018;28;20267;-73
2023/08/26 06:35:45;;;;;;;8.97;5.70;;;;;;;;;;5067799;28;20178;-73
2023/08/26 06:38:10;;;;;;;7.43;5.90;;;;;;;;;;5068546;28;20260;-73
2023/08/26 06:40:35;;;;;;;8.70;5.63;;;;;;;;;;5068787;28;20304;-73
2023/08/26 06:43:04;;;;;;;9.03;6.23;;;;;;;;;;5062346;28;20185;-73
2023/08/26 06:45:29;;;;;;;7.93;5.10;;;;;;;;;;5072746;28;20188;-73
2023/08/26 06:47:54;;;;;;;6.87;5.60;;;;;;;;;;5054530;28;20284;-73
2023/08/26 06:50:20;;;;;;;10.60;6.57;;;;;;;;;;5071936;28;20166;-73
2023/08/26 06:52:45;;;;;;;8.10;6.10;;;;;;;;;;5070005;28;20179;-73
2023/08/26 06:55:11;;;;;;;6.70;5.97;;;;;;;;;;5052415;28;20197;-73
2023/08/26 06:57:36;;;;;;;9.27;6.40;;;;;;;;;;5053186;28;20198;-73
2023/08/26 07:00:02;;;;;;;8.07;6.10;;;;;;;;;;5076033;28;20189;-73
2023/08/26 07:02:28;;;;;;;6.00;4.97;;;;;;;;;;5053942;28;20186;-73
2023/08/26 07:04:53;;;;;;;7.10;6.40;;;;;;;;;;5073665;28;20178;-73
2023/08/26 07:07:18;;;;;;;9.30;5.60;;;;;;;;;;5074455;28;20307;-73
2023/08/26 07:09:43;;;;;;;6.53;5.93;;;;;;;;;;5071591;28;20241;-73
2023/08/26 07:12:08;;;;;;;10.07;7.33;;;;;;;;;;5069871;28;20182;-73
2023/08/26 07:14:34;;;;;;;8.33;6.30;;;;;;;;;;5065932;28;20198;-73
2023/08/26 07:16:59;;;;;;;7.70;6.03;;;;;;;;;;5058527;28;20260;-73
2023/08/26 07:19:24;;;;;;;10.27;6.77;;;;;;;;;;5055451;28;20181;-73
2023/08/26 07:21:51;;;;;;;9.57;6.57;;;;;;;;;;5068900;28;20260;-73
2023/08/26 07:24:16;;;;;;;7.07;5.63;;;;;;;;;;5055164;28;20179;-73
2023/08/26 07:26:41;;;;;;;6.43;5.43;;;;;;;;;;5072262;28;20188;-73
2023/08/26 07:29:06;;;;;;;7.77;6.10;;;;;;;;;;5069072;28;20283;-73
2023/08/26 07:31:32;;;;;;;7.73;6.20;;;;;;;;;;5072498;28;20182;-73
2023/08/26 07:33:58;;;;;;;12.37;6.90;;;;;;;;;;5055271;28;20183;-73
2023/08/26 07:36:23;;;;;;;7.20;5.43;;;;;;;;;;5071597;28;20179;-73
2023/08/26 07:38:48;;;;;;;6.60;5.83;;;;;;;;;;5071499;28;20195;-73
2023/08/26 07:41:13;;;;;;;11.90;5.13;;;;;;;;;;5068017;28;20188;-73
2023/08/26 07:43:38;;;;;;;7.00;4.80;;;;;;;;;;5069973;28;20187;-73
2023/08/26 07:46:04;;;;;;;6.27;5.67;;;;;;;;;;5073049;28;20196;-73
2023/08/26 07:48:29;;;;;;;11.23;5.03;;;;;;;;;;5057774;28;20237;-73
2023/08/26 07:50:54;;;;;;;7.10;4.87;;;;;;;;;;5071285;28;20182;-73
2023/08/26 07:53:20;;;;;;;5.77;4.47;;;;;;;;;;5054889;28;20178;-73
2023/08/26 07:55:45;;;;;;;6.33;4.03;;;;;;;;;;5054367;28;20179;-73
2023/08/26 07:58:10;;;;;;;7.90;4.50;;;;;;;;;;5068152;28;20278;-73
2023/08/26 08:00:35;;;;;;;3.77;3.43;;;;;;;;;;5066368;28;20196;-73
2023/08/26 08:03:00;;;;;;;4.40;4.00;;;;;;;;;;5054044;28;20190;-73
2023/08/26 08:05:26;;;;;;;3.90;3.20;;;;;;;;;;5072086;28;20183;-73
2023/08/26 08:07:51;;;;;;;6.20;3.30;;;;;;;;;;5066188;28;20250;-73
2023/08/26 08:10:16;;;;;;;5.77;3.30;;;;;;;;;;5072627;28;20225;-73
2023/08/26 08:12:42;;;;;;;4.30;3.83;;;;;;;;;;5054622;28;20188;-73
2023/08/26 08:15:08;;;;;;;5.30;3.40;;;;;;;;;;5072507;28;20230;-73
2023/08/26 08:17:33;;;;;;;3.40;3.10;;;;;;;;;;5071347;28;20172;-73
2023/08/26 08:19:58;;;;;;;4.00;2.70;;;;;;;;;;5072155;28;20192;-73
2023/08/26 08:22:34;;;;;;;4.33;3.30;;;;;;;;;;5067888;28;20209;-73
2023/08/26 08:25:00;;;;;;;6.60;3.27;;;;;;;;;;5071082;28;20183;-73
2023/08/26 08:27:25;;;;;;;3.80;2.77;;;;;;;;;;5053760;28;20190;-73
2023/08/26 08:29:50;;;;;;;4.83;2.87;;;;;;;;;;5073998;28;20205;-73
2023/08/26 08:32:15;;;;;;;5.27;3.43;;;;;;;;;;5055115;28;20209;-73
2023/08/26 08:34:40;;;;;;;5.97;3.00;;;;;;;;;;5048909;28;20203;-73
2023/08/26 08:37:06;;;;;;;5.33;3.27;;;;;;;;;;5066440;28;20170;-73
2023/08/26 08:39:31;;;;;;;4.70;3.00;;;;;;;;;;5071598;28;20244;-73
2023/08/26 08:41:58;;;;;;;6.10;2.93;;;;;;;;;;5071770;28;20184;-73
2023/08/26 08:44:25;;;;;;;6.53;3.00;;;;;;;;;;5070717;28;20180;-73
2023/08/26 08:46:51;;;;;;;3.10;2.77;;;;;;;;;;5068123;28;20211;-73
2023/08/26 08:49:16;;;;;;;3.70;2.97;;;;;;;;;;5048540;28;20251;-73
2023/08/26 08:51:41;;;;;;;5.10;3.13;;;;;;;;;;5052464;28;20233;-73
2023/08/26 08:54:07;;;;;;;5.77;3.00;;;;;;;;;;5069145;28;20173;-73
2023/08/26 08:56:32;;;;;;;6.17;2.60;;;;;;;;;;5071150;28;20201;-74
2023/08/26 08:58:59;;;;;;;4.60;2.77;;;;;;;;;;5070878;28;20225;-74
2023/08/26 09:01:24;;;;;;;5.33;3.00;;;;;;;;;;5068953;28;20249;-73
2023/08/26 09:03:49;;;;;;;4.47;3.10;;;;;;;;;;5071067;28;20181;-73
2023/08/26 09:06:14;;;;;;;4.00;3.07;;;;;;;;;;5070413;28;20177;-72
2023/08/26 09:08:40;;;;;;;2.93;2.50;;;;;;;;;;5070450;28;20250;-73
2023/08/26 09:11:05;;;;;;;3.63;2.77;;;;;;;;;;5052754;28;20217;-73
2023/08/26 09:13:30;;;;;;;2.77;2.40;;;;;;;;;;5053721;28;20223;-73
2023/08/26 09:15:56;;;;;;;4.60;2.90;;;;;;;;;;5070178;28;20170;-73
2023/08/26 09:18:21;;;;;;;4.53;3.00;;;;;;;;;;5068620;28;20175;-73
2023/08/26 09:20:46;;;;;;;4.10;2.90;;;;;;;;;;5047907;28;20190;-74
2023/08/26 09:23:12;;;;;;;5.70;3.00;;;;;;;;;;5070036;28;20189;-73
2023/08/26 09:25:37;;;;;;;7.87;3.23;;;;;;;;;;5070003;28;20177;-74
2023/08/26 09:28:05;;;;;;;7.03;2.90;;;;;;;;;;5052748;28;20181;-73
2023/08/26 09:30:30;;;;;;;6.10;3.30;;;;;;;;;;5069841;28;20184;-73
2023/08/26 09:32:56;;;;;;;6.57;3.00;;;;;;;;;;5049898;28;20178;-73
2023/08/26 09:35:21;;;;;;;3.43;2.60;;;;;;;;;;5067592;28;20258;-74
2023/08/26 09:37:47;;;;;;;3.80;2.63;;;;;;;;;;5050978;28;20185;-73
2023/08/26 09:40:13;;;;;;;8.97;3.10;;;;;;;;;;5056490;28;20308;-73
2023/08/26 09:42:39;;;;;;;3.73;2.80;;;;;;;;;;5055092;28;20230;-74
2023/08/26 09:45:13;;;;;;;4.07;3.10;;;;;;;;;;5051163;28;20213;-74
2023/08/26 09:47:38;;;;;;;3.20;2.87;;;;;;;;;;5067593;28;20213;-73
2023/08/26 09:50:04;;;;;;;3.53;2.73;;;;;;;;;;5068684;28;20241;-73
2023/08/26 09:52:29;;;;;;;2.90;2.30;;;;;;;;;;5069822;28;20187;-73
2023/08/26 09:54:55;;;;;;;3.20;2.70;;;;;;;;;;5069743;28;20176;-74
2023/08/26 09:57:21;;;;;;;3.50;2.63;;;;;;;;;;5050671;28;20192;-73
2023/08/26 09:59:46;;;;;;;4.03;2.40;;;;;;;;;;5052262;28;20269;-73
2023/08/26 10:02:35;;;;;;;2.77;2.20;;;;;;;;;;5069175;28;20184;-73
2023/08/26 10:05:02;;;;;;;3.67;2.50;;;;;;;;;;5068521;28;20211;-73
2023/08/26 10:07:29;;;;;;;6.70;2.70;;;;;;;;;;5049960;28;20216;-74
2023/08/26 10:09:57;;;;;;;3.90;2.50;;;;;;;;;;5048693;28;20294;-73
2023/08/26 10:12:28;;;;;;;3.40;2.60;;;;;;;;;;5052658;28;20324;-73
2023/08/26 10:14:54;;;;;;;4.37;3.10;;;;;;;;;;5067346;28;20266;-74
2023/08/26 10:17:20;;;;;;;3.93;3.27;;;;;;;;;;5069240;28;20182;-73
2023/08/26 10:19:46;;;;;;;3.20;2.90;;;;;;;;;;5050306;28;20181;-73
2023/08/26 10:22:12;;;;;;;3.70;2.67;;;;;;;;;;5051913;28;20191;-74
2023/08/26 10:24:37;;;;;;;4.47;2.73;;;;;;;;;;5052776;28;20184;-74
2023/08/26 10:27:03;;;;;;;3.43;2.63;;;;;;;;;;5051156;28;20189;-74
2023/08/26 10:29:29;;;;;;;3.90;2.90;;;;;;;;;;5068025;28;20318;-73
2023/08/26 10:31:54;;;;;;;3.37;3.07;;;;;;;;;;5070196;28;20263;-74
2023/08/26 10:34:20;;;;;;;4.83;3.30;;;;;;;;;;5051938;28;20270;-74
2023/08/26 10:36:49;;;;;;;6.50;3.43;;;;;;;;;;5052746;28;20231;-74
2023/08/26 10:39:16;;;;;;;5.23;3.03;;;;;;;;;;5068746;28;20177;-73
2023/08/26 10:42:01;;;;;;;6.60;3.23;;;;;;;;;;5067213;28;20189;-74
2023/08/26 10:44:29;;;;;;;6.97;3.37;;;;;;;;;;5059113;28;20193;-74
2023/08/26 10:46:55;;;;;;;6.30;3.20;;;;;;;;;;5068828;28;20297;-74
2023/08/26 10:49:27;;;;;;;3.17;2.53;;;;;;;;;;5069183;28;20286;-74
2023/08/26 10:52:06;;;;;;;5.40;3.23;;;;;;;;;;5066388;28;20180;-74
2023/08/26 10:54:32;;;;;;;4.40;2.83;;;;;;;;;;5052712;28;20222;-74
2023/08/26 10:56:57;;;;;;;5.80;3.07;;;;;;;;;;5056844;28;20185;-74
2023/08/26 10:59:35;;;;;;;5.83;2.90;;;;;;;;;;5073315;28;20226;-74
2023/08/26 11:02:01;;;;;;;7.60;3.07;;;;;;;;;;5069720;28;20181;-74
2023/08/26 11:04:26;;;;;;;2.90;2.50;;;;;;;;;;5055620;28;20267;-74
2023/08/26 11:06:51;;;;;;;7.07;3.37;;;;;;;;;;5052965;28;20181;-74
2023/08/26 11:09:18;;;;;;;5.20;3.00;;;;;;;;;;5073174;28;20271;-74
2023/08/26 11:11:43;;;;;;;2.80;2.50;;;;;;;;;;5052950;28;20174;-74
2023/08/26 11:14:09;;;;;;;5.37;2.37;;;;;;;;;;5073689;28;20203;-74
2023/08/26 11:16:35;;;;;;;2.60;2.40;;;;;;;;;;5055099;28;20277;-74
2023/08/26 11:19:00;;;;;;;6.37;3.37;;;;;;;;;;5069117;28;20193;-74
2023/08/26 11:21:26;;;;;;;3.40;2.90;;;;;;;;;;5054704;28;20173;-74
2023/08/26 11:23:54;;;;;;;3.13;2.57;;;;;;;;;;5054399;28;20235;-74
2023/08/26 11:26:20;;;;;;;3.03;2.73;;;;;;;;;;5056188;28;20222;-74
2023/08/26 11:28:46;;;;;;;3.40;2.67;;;;;;;;;;5073342;28;20212;-74
2023/08/26 11:31:11;;;;;;;3.70;2.40;;;;;;;;;;5073103;28;20182;-74
2023/08/26 11:33:36;;;;;;;3.43;2.50;;;;;;;;;;5072721;28;20237;-74
2023/08/26 11:36:02;;;;;;;4.03;2.60;;;;;;;;;;5071096;28;20180;-74
2023/08/26 11:38:32;;;;;;;3.57;2.87;;;;;;;;;;5054084;28;20187;-74
2023/08/26 11:40:57;;;;;;;3.63;2.50;;;;;;;;;;5054532;28;20316;-74
2023/08/26 11:43:23;;;;;;;2.13;1.93;;;;;;;;;;5055437;28;20240;-74
2023/08/26 11:45:50;;;;;;;4.23;2.10;;;;;;;;;;5068685;28;20206;-74
2023/08/26 11:48:16;;;;;;;2.30;2.10;;;;;;;;;;5070033;28;20175;-74
2023/08/26 11:50:41;;;;;;;3.63;2.53;;;;;;;;;;5056819;28;20174;-74
2023/08/26 11:53:06;;;;;;;3.93;2.20;;;;;;;;;;5071540;28;20248;-74
2023/08/26 11:55:33;;;;;;;3.00;2.10;;;;;;;;;;5072695;28;20180;-74
2023/08/26 11:57:59;;;;;;;3.00;2.40;;;;;;;;;;5073465;28;20173;-74
2023/08/26 12:00:24;;;;;;;2.30;1.90;;;;;;;;;;5055941;28;20173;-74
2023/08/26 12:02:50;;;;;;;4.53;2.30;;;;;;;;;;5070778;28;20182;-74
2023/08/26 12:05:16;;;;;;;3.93;2.33;;;;;;;;;;5071579;28;20230;-74
2023/08/26 12:07:48;;;;;;;2.83;2.10;;;;;;;;;;5071933;28;20208;-74
2023/08/26 12:10:14;;;;;;;4.03;2.30;;;;;;;;;;5054204;28;20228;-73
2023/08/26 12:12:40;;;;;;;6.73;2.77;;;;;;;;;;5064710;28;20253;-73
2023/08/26 12:15:09;;;;;;;3.60;2.20;;;;;;;;;;5048722;28;20208;-73
2023/08/26 12:17:42;;;;;;;3.60;2.27;;;;;;;;;;5065450;28;20199;-73
2023/08/26 12:20:23;;;;;;;4.60;2.50;;;;;;;;;;5069950;28;20180;-73
2023/08/26 12:22:49;;;;;;;3.57;2.10;;;;;;;;;;5068521;28;20184;-73
2023/08/26 12:25:18;;;;;;;5.37;2.53;;;;;;;;;;5053927;28;20178;-73
2023/08/26 12:27:43;;;;;;;5.53;2.73;;;;;;;;;;5053728;28;20172;-73
2023/08/26 12:30:08;;;;;;;3.77;2.77;;;;;;;;;;5070285;28;20192;-73
2023/08/26 12:32:34;;;;;;;3.77;2.37;;;;;;;;;;5053884;28;20170;-73
2023/08/26 12:35:00;;;;;;;2.30;2.10;;;;;;;;;;5056442;28;20179;-73
2023/08/26 12:37:25;;;;;;;5.23;1.90;;;;;;;;;;5054714;28;20179;-73
2023/08/26 12:39:50;;;;;;;2.93;1.90;;;;;;;;;;5052097;28;20212;-73
2023/08/26 12:42:15;;;;;;;6.03;2.37;;;;;;;;;;5072125;28;20183;-73
2023/08/26 12:44:40;;;;;;;4.40;2.30;;;;;;;;;;5053345;28;20182;-74
2023/08/26 12:47:06;;;;;;;4.00;2.40;;;;;;;;;;5054542;28;20186;-73
2023/08/26 12:49:31;;;;;;;5.30;2.90;;;;;;;;;;5056175;28;20299;-73
2023/08/26 12:51:56;;;;;;;3.80;2.00;;;;;;;;;;5068157;28;20186;-73
2023/08/26 12:54:21;;;;;;;2.33;2.10;;;;;;;;;;5068691;28;20250;-73
2023/08/26 12:56:47;;;;;;;3.67;2.40;;;;;;;;;;5069966;28;20189;-73
2023/08/26 12:59:12;;;;;;;4.30;2.37;;;;;;;;;;5054268;28;20173;-73
2023/08/26 13:01:37;;;;;;;2.60;2.30;;;;;;;;;;5055356;28;20179;-74
2023/08/26 13:04:04;;;;;;;4.83;2.87;;;;;;;;;;5051771;28;20241;-68
2023/08/26 13:06:29;;;;;;;8.70;3.00;;;;;;;;;;5070575;28;20215;-68
2023/08/26 13:08:54;;;;;;;3.27;2.80;;;;;;;;;;5069716;28;20293;-68
2023/08/26 13:11:19;;;;;;;3.23;2.47;;;;;;;;;;5069324;28;20179;-68
2023/08/26 13:13:45;;;;;;;4.50;2.73;;;;;;;;;;5066511;28;20182;-68
2023/08/26 13:16:10;;;;;;;4.40;2.83;;;;;;;;;;5052350;28;20186;-68
2023/08/26 13:18:38;;;;;;;4.67;2.97;;;;;;;;;;5053074;28;20180;-68
2023/08/26 13:21:03;;;;;;;3.87;2.90;;;;;;;;;;5070592;28;20215;-68
2023/08/26 13:23:28;;;;;;;3.10;2.47;;;;;;;;;;5070267;28;20302;-68
2023/08/26 13:25:53;;;;;;;7.70;3.10;;;;;;;;;;5052648;28;20183;-68
2023/08/26 13:28:19;;;;;;;8.33;2.73;;;;;;;;;;5067131;28;20264;-68
2023/08/26 13:30:44;;;;;;;4.60;2.60;;;;;;;;;;5070172;28;20202;-68
2023/08/26 13:33:09;;;;;;;3.97;2.43;;;;;;;;;;5050471;28;20188;-69
2023/08/26 13:35:34;;;;;;;4.47;3.00;;;;;;;;;;5069022;28;20259;-68
2023/08/26 13:38:00;;;;;;;6.80;2.83;;;;;;;;;;5069273;28;20203;-68
2023/08/26 13:40:25;;;;;;;2.90;2.40;;;;;;;;;;5053127;28;20309;-68
2023/08/26 13:42:53;;;;;;;3.03;2.37;;;;;;;;;;5052504;28;20259;-71
2023/08/26 13:45:18;;;;;;;3.20;2.33;;;;;;;;;;5052589;28;20180;-68
2023/08/26 13:47:43;;;;;;;6.13;3.10;;;;;;;;;;5069631;28;20191;-68
2023/08/26 13:50:08;;;;;;;5.27;2.83;;;;;;;;;;5054620;28;20206;-68
2023/08/26 13:52:34;;;;;;;2.83;2.50;;;;;;;;;;5053495;28;20319;-68
2023/08/26 13:54:59;;;;;;;4.30;2.60;;;;;;;;;;5051313;28;20177;-68
2023/08/26 13:57:24;;;;;;;6.10;2.87;;;;;;;;;;5064406;28;20187;-68
2023/08/26 13:59:49;;;;;;;4.60;2.47;;;;;;;;;;5070496;28;20182;-68
2023/08/26 14:02:15;;;;;;;3.40;2.50;;;;;;;;;;5051752;28;20191;-68
2023/08/26 14:04:40;;;;;;;5.80;2.83;;;;;;;;;;5050805;28;20206;-68
2023/08/26 14:07:05;;;;;;;4.87;2.33;;;;;;;;;;5049647;28;20217;-68
2023/08/26 14:09:30;;;;;;;3.33;2.47;;;;;;;;;;5051872;28;20240;-68
2023/08/26 14:11:58;;;;;;;4.17;2.37;;;;;;;;;;5054747;28;20190;-68
2023/08/26 14:14:23;;;;;;;3.90;2.50;;;;;;;;;;5056777;28;20168;-68
2023/08/26 14:16:48;;;;;;;6.03;2.80;;;;;;;;;;5052073;28;20236;-68
2023/08/26 14:19:13;;;;;;;4.63;3.27;;;;;;;;;;5052275;28;20193;-68
2023/08/26 14:21:39;;;;;;;3.93;2.40;;;;;;;;;;5070433;28;20231;-68
2023/08/26 14:24:04;;;;;;;3.60;2.47;;;;;;;;;;5053254;28;20170;-68
2023/08/26 14:26:30;;;;;;;3.30;2.30;;;;;;;;;;5069472;28;20189;-68
2023/08/26 14:28:55;;;;;;;3.33;2.53;;;;;;;;;;5046936;28;20196;-68
2023/08/26 14:31:21;;;;;;;4.17;2.73;;;;;;;;;;5074096;28;20190;-68
2023/08/26 14:33:46;;;;;;;5.60;2.57;;;;;;;;;;5055785;28;20171;-68
2023/08/26 14:36:11;;;;;;;4.33;2.47;;;;;;;;;;5074358;28;20172;-68